createdAt,value
2023-03-20T00:01:56.675Z,9.20
2023-03-20T00:04:23.505Z,9.10
2023-03-20T00:06:50.399Z,9.10
2023-03-20T00:09:17.948Z,9.10
2023-03-20T00:11:52.568Z,9.10
2023-03-20T00:14:22.448Z,9.20
2023-03-20T00:16:50.563Z,9.20
2023-03-20T00:19:23.123Z,9.20
2023-03-20T00:21:51.876Z,9.20
2023-03-20T00:24:18.669Z,9.20
2023-03-20T00:26:47.955Z,9.40
2023-03-20T00:29:31.198Z,9.40
2023-03-20T00:31:58.947Z,9.30
2023-03-20T00:34:28.990Z,9.30
2023-03-20T00:36:56.440Z,9.40
2023-03-20T00:39:24.291Z,9.40
2023-03-20T00:41:53.469Z,9.40
2023-03-20T00:44:30.296Z,9.40
2023-03-20T00:46:59.695Z,9.40
2023-03-20T00:49:35.640Z,9.40
2023-03-20T00:52:04.104Z,9.50
2023-03-20T00:54:31.572Z,9.60
2023-03-20T00:57:02.777Z,9.50
2023-03-20T00:59:34.165Z,9.50
2023-03-20T01:02:02.583Z,9.40
2023-03-20T01:04:36.276Z,9.40
2023-03-20T01:07:06.828Z,9.40
2023-03-20T01:09:33.894Z,9.50
2023-03-20T01:12:01.570Z,9.50
2023-03-20T01:14:28.471Z,9.60
2023-03-20T01:16:55.803Z,9.50
2023-03-20T01:19:22.718Z,9.50
2023-03-20T01:21:49.569Z,9.50
2023-03-20T01:24:16.500Z,9.40
2023-03-20T01:26:44.598Z,9.40
2023-03-20T01:29:31.645Z,9.40
2023-03-20T01:31:58.524Z,9.30
2023-03-20T01:34:27.760Z,9.30
2023-03-20T01:36:58.754Z,9.30
2023-03-20T01:39:33.742Z,9.30
2023-03-20T01:42:02.380Z,9.30
2023-03-20T01:44:33.926Z,9.40
2023-03-20T01:47:02.787Z,9.40
2023-03-20T01:49:30.085Z,9.40
2023-03-20T01:52:01.702Z,9.50
2023-03-20T01:54:37.399Z,9.50
2023-03-20T01:57:20.439Z,9.50
2023-03-20T01:59:51.656Z,9.50
2023-03-20T02:02:27.074Z,9.40
2023-03-20T02:04:59.634Z,9.40
2023-03-20T02:07:26.600Z,9.40
2023-03-20T02:10:19.497Z,9.30
2023-03-20T02:12:55.687Z,9.40
2023-03-20T02:15:32.218Z,9.30
2023-03-20T02:18:19.376Z,9.30
2023-03-20T02:21:18.535Z,9.30
2023-03-20T02:24:06.146Z,9.20
2023-03-20T02:27:06.231Z,9.30
2023-03-20T02:30:14.042Z,9.30
2023-03-20T02:32:53.782Z,9.20
2023-03-20T02:35:57.581Z,9.20
2023-03-20T02:38:24.361Z,9.10
2023-03-20T02:41:12.801Z,9.10
2023-03-20T02:43:50.486Z,9.00
2023-03-20T02:46:47.369Z,9.10
2023-03-20T02:49:40.210Z,9.10
2023-03-20T02:52:10.545Z,9.00
2023-03-20T02:54:51.030Z,9.00
2023-03-20T02:57:42.236Z,9.00
2023-03-20T03:00:30.327Z,9.10
2023-03-20T03:03:10.968Z,9.20
2023-03-20T03:06:00.422Z,9.20
2023-03-20T03:08:33.890Z,9.10
2023-03-20T03:11:09.103Z,9.10
2023-03-20T03:13:41.882Z,9.10
2023-03-20T03:16:21.214Z,9.00
2023-03-20T03:18:54.339Z,9.00
2023-03-20T03:21:23.571Z,9.00
2023-03-20T03:23:50.382Z,9.10
2023-03-20T03:26:27.579Z,9.10
2023-03-20T03:29:01.631Z,9.00
2023-03-20T03:31:30.045Z,8.90
2023-03-20T03:34:00.231Z,8.90
2023-03-20T03:36:42.885Z,8.90
2023-03-20T03:39:31.089Z,8.90
2023-03-20T03:42:17.188Z,8.90
2023-03-20T03:45:04.299Z,8.90
2023-03-20T03:47:40.060Z,8.90
2023-03-20T03:50:20.375Z,8.90
2023-03-20T03:52:51.875Z,8.90
2023-03-20T03:55:26.356Z,8.90
2023-03-20T03:58:09.457Z,8.90
2023-03-20T04:00:40.771Z,8.90
2023-03-20T04:03:08.788Z,8.90
2023-03-20T04:05:38.440Z,9.00
2023-03-20T04:08:06.359Z,9.00
2023-03-20T04:10:33.543Z,9.00
2023-03-20T04:13:00.382Z,9.10
2023-03-20T04:15:27.876Z,9.10
2023-03-20T04:17:55.563Z,9.10
2023-03-20T04:20:22.874Z,9.20
2023-03-20T04:22:49.808Z,9.20
2023-03-20T04:25:24.392Z,9.20
2023-03-20T04:27:56.874Z,9.20
2023-03-20T04:30:39.138Z,9.20
2023-03-20T04:33:21.952Z,9.20
2023-03-20T04:36:03.471Z,9.20
2023-03-20T04:38:30.309Z,9.20
2023-03-20T04:40:57.225Z,9.20
2023-03-20T04:43:24.100Z,9.20
2023-03-20T04:45:52.404Z,9.20
2023-03-20T04:48:19.311Z,9.20
2023-03-20T04:50:48.335Z,9.20
2023-03-20T04:53:17.958Z,9.20
2023-03-20T04:55:48.757Z,9.30
2023-03-20T04:58:15.902Z,9.30
2023-03-20T05:00:44.927Z,9.30
2023-03-20T05:03:12.198Z,9.30
2023-03-20T05:05:40.323Z,9.30
2023-03-20T05:08:07.717Z,9.30
2023-03-20T05:10:37.097Z,9.30
2023-03-20T05:13:21.574Z,9.30
2023-03-20T05:16:02.726Z,9.30
2023-03-20T05:18:49.801Z,9.30
2023-03-20T05:21:39.619Z,9.30
2023-03-20T05:24:06.792Z,9.30
2023-03-20T05:26:36.522Z,9.30
2023-03-20T05:29:21.964Z,9.30
2023-03-20T05:31:48.933Z,9.30
2023-03-20T05:34:31.035Z,9.30
2023-03-20T05:37:21.050Z,9.30
2023-03-20T05:40:02.011Z,9.30
2023-03-20T05:42:55.078Z,9.30
2023-03-20T05:45:42.254Z,9.30
2023-03-20T05:48:41.546Z,9.40
2023-03-20T05:51:27.254Z,9.40
2023-03-20T05:54:04.944Z,9.40
2023-03-20T05:57:04.073Z,9.40
2023-03-20T05:59:49.634Z,9.40
2023-03-20T06:02:34.894Z,9.50
2023-03-20T06:05:11.878Z,9.40
2023-03-20T06:07:45.056Z,9.50
2023-03-20T06:10:15.057Z,9.50
2023-03-20T06:12:42.672Z,9.40
2023-03-20T06:15:10.073Z,9.50
2023-03-20T06:17:41.248Z,9.40
2023-03-20T06:20:09.761Z,9.40
2023-03-20T06:22:36.918Z,9.40
2023-03-20T06:25:03.979Z,9.40
2023-03-20T06:27:35.936Z,9.30
2023-03-20T06:30:04.059Z,9.30
2023-03-20T06:32:34.305Z,9.30
2023-03-20T06:35:05.748Z,9.10
2023-03-20T06:37:33.469Z,9.10
2023-03-20T06:40:06.602Z,9.10
2023-03-20T06:42:34.531Z,9.00
2023-03-20T06:45:02.905Z,8.80
2023-03-20T06:47:57.004Z,8.80
2023-03-20T06:50:24.059Z,8.70
2023-03-20T06:52:52.247Z,8.60
2023-03-20T06:55:51.648Z,8.60
2023-03-20T06:58:19.035Z,8.60
2023-03-20T07:00:49.538Z,8.50
2023-03-20T07:03:16.787Z,8.50
2023-03-20T07:05:46.593Z,8.60
2023-03-20T07:08:13.505Z,8.60
2023-03-20T07:10:40.371Z,8.60
2023-03-20T07:13:07.190Z,8.60
2023-03-20T07:15:37.094Z,8.60
2023-03-20T07:18:05.500Z,8.60
2023-03-20T07:20:32.612Z,8.70
2023-03-20T07:22:59.635Z,8.80
2023-03-20T07:25:41.342Z,8.80
2023-03-20T07:28:09.864Z,8.70
2023-03-20T07:30:39.680Z,8.70
2023-03-20T07:33:06.959Z,8.70
2023-03-20T07:35:35.598Z,8.80
2023-03-20T07:38:03.155Z,8.80
2023-03-20T07:40:30.329Z,8.80
2023-03-20T07:43:01.909Z,8.90
2023-03-20T07:46:07.742Z,8.90
2023-03-20T07:48:37.024Z,9.00
2023-03-20T07:51:04.206Z,9.10
2023-03-20T07:53:31.662Z,9.20
2023-03-20T07:55:58.434Z,9.30
2023-03-20T07:58:25.334Z,9.30
2023-03-20T08:00:52.370Z,9.40
2023-03-20T08:03:19.272Z,9.40
2023-03-20T08:05:47.637Z,9.50
2023-03-20T08:08:14.936Z,9.50
2023-03-20T08:10:41.982Z,9.50
2023-03-20T08:13:08.873Z,9.50
2023-03-20T08:15:36.016Z,9.50
2023-03-20T08:18:02.968Z,9.60
2023-03-20T08:20:30.959Z,9.50
2023-03-20T08:22:57.945Z,9.50
2023-03-20T08:25:24.707Z,9.60
2023-03-20T08:27:51.661Z,9.60
2023-03-20T08:30:18.603Z,9.70
2023-03-20T08:32:45.639Z,9.90
2023-03-20T08:35:29.830Z,10.00
2023-03-20T08:37:59.195Z,10.10
2023-03-20T08:40:26.066Z,10.20
2023-03-20T08:42:52.868Z,10.40
2023-03-20T08:45:19.803Z,10.40
2023-03-20T08:47:49.900Z,10.50
2023-03-20T08:50:17.033Z,10.80
2023-03-20T08:52:44.406Z,10.80
2023-03-20T08:55:13.032Z,10.90
2023-03-20T08:57:40.793Z,11.10
2023-03-20T09:00:12.741Z,11.20
2023-03-20T09:02:39.831Z,11.10
2023-03-20T09:05:07.394Z,11.00
2023-03-20T09:07:34.515Z,10.80
2023-03-20T09:14:15.080Z,10.90
2023-03-20T09:16:42.097Z,11.10
2023-03-20T09:19:09.022Z,11.10
2023-03-20T09:21:40.553Z,11.20
2023-03-20T09:24:07.637Z,11.40
2023-03-20T09:26:34.477Z,11.50
2023-03-20T09:29:01.429Z,11.40
2023-03-20T09:31:28.333Z,11.50
2023-03-20T09:33:55.582Z,11.30
2023-03-20T09:36:22.354Z,11.30
2023-03-20T09:38:49.158Z,11.30
2023-03-20T09:41:26.784Z,11.30
2023-03-20T09:44:14.130Z,11.40
2023-03-20T09:47:18.872Z,11.50
2023-03-20T09:50:26.998Z,11.60
2023-03-20T09:53:19.545Z,11.90
2023-03-20T09:55:48.259Z,12.00
2023-03-20T09:58:25.664Z,12.10
2023-03-20T10:00:56.840Z,12.30
2023-03-20T10:03:32.436Z,12.30
2023-03-20T10:06:05.983Z,12.40
2023-03-20T10:08:38.465Z,12.20
2023-03-20T10:11:05.544Z,12.00
2023-03-20T10:13:46.207Z,11.80
2023-03-20T10:16:29.594Z,11.90
2023-03-20T10:19:15.140Z,11.70
2023-03-20T10:21:48.590Z,11.70
2023-03-20T10:24:40.853Z,11.70
2023-03-20T10:27:36.594Z,11.70
2023-03-20T10:30:31.281Z,11.70
2023-03-20T10:33:05.419Z,11.60
2023-03-20T10:35:46.172Z,11.80
2023-03-20T10:38:16.913Z,12.00
2023-03-20T10:40:44.049Z,12.10
2023-03-20T10:43:21.342Z,12.00
2023-03-20T10:45:53.923Z,11.90
2023-03-20T10:48:31.235Z,11.90
2023-03-20T10:51:02.093Z,12.00
2023-03-20T10:53:49.661Z,12.00
2023-03-20T10:56:36.792Z,12.10
2023-03-20T10:59:34.180Z,12.00
2023-03-20T11:02:01.054Z,12.00
2023-03-20T11:04:27.902Z,12.00
2023-03-20T11:07:31.807Z,12.00
2023-03-20T11:10:04.582Z,12.00
2023-03-20T11:12:48.383Z,12.10
2023-03-20T11:15:22.939Z,12.10
2023-03-20T11:17:58.402Z,12.10
2023-03-20T11:20:35.172Z,12.10
2023-03-20T11:23:04.669Z,12.10
2023-03-20T11:25:34.939Z,12.10
2023-03-20T11:28:32.468Z,12.00
2023-03-20T11:31:05.802Z,12.20
2023-03-20T11:33:36.896Z,12.40
2023-03-20T11:36:21.926Z,12.40
2023-03-20T11:38:50.931Z,12.50
2023-03-20T11:41:22.750Z,12.20
2023-03-20T11:43:49.635Z,12.20
2023-03-20T11:46:16.603Z,12.30
2023-03-20T11:48:48.103Z,12.10
2023-03-20T11:51:19.181Z,12.10
2023-03-20T11:53:51.731Z,12.00
2023-03-20T11:56:29.310Z,12.00
2023-03-20T11:59:02.081Z,12.00
2023-03-20T12:01:37.629Z,12.00
2023-03-20T12:04:12.592Z,12.20
2023-03-20T12:06:58.273Z,12.30
2023-03-20T12:09:43.132Z,12.40
2023-03-20T12:12:41.038Z,12.60
2023-03-20T12:15:26.395Z,12.60
2023-03-20T12:18:01.201Z,12.70
2023-03-20T12:20:53.040Z,12.80
2023-03-20T12:23:57.744Z,12.80
2023-03-20T12:26:34.916Z,12.60
2023-03-20T12:29:04.430Z,12.50
2023-03-20T12:31:51.758Z,12.40
2023-03-20T12:34:33.164Z,12.40
2023-03-20T12:37:00.493Z,12.30
2023-03-20T12:39:38.504Z,12.20
2023-03-20T12:42:14.508Z,12.20
2023-03-20T12:44:50.410Z,12.20
2023-03-20T12:47:51.694Z,12.10
2023-03-20T12:50:28.186Z,12.20
2023-03-20T12:53:20.030Z,12.30
2023-03-20T12:56:11.626Z,12.40
2023-03-20T12:58:56.059Z,12.30
2023-03-20T13:01:49.398Z,12.30
2023-03-20T13:04:31.501Z,12.20
2023-03-20T13:07:07.640Z,12.30
2023-03-20T13:09:37.225Z,12.30
2023-03-20T13:12:13.361Z,12.40
2023-03-20T13:14:52.014Z,12.50
2023-03-20T13:17:26.502Z,12.50
2023-03-20T13:20:21.718Z,12.50
2023-03-20T13:22:49.154Z,12.60
2023-03-20T13:25:34.765Z,12.60
2023-03-20T13:28:25.495Z,12.60
2023-03-20T13:31:16.571Z,12.50
2023-03-20T13:33:54.953Z,12.40
2023-03-20T13:36:55.728Z,12.30
2023-03-20T13:39:53.612Z,12.20
2023-03-20T13:42:23.180Z,12.00
2023-03-20T13:44:53.924Z,11.90
2023-03-20T13:47:27.093Z,11.90
2023-03-20T13:50:26.181Z,11.90
2023-03-20T13:53:01.910Z,11.90
2023-03-20T13:55:38.763Z,11.80
2023-03-20T13:58:26.377Z,11.80
2023-03-20T14:01:05.586Z,11.80
2023-03-20T14:03:38.349Z,11.70
2023-03-20T14:06:44.344Z,11.70
2023-03-20T14:09:40.645Z,11.70
2023-03-20T14:12:12.825Z,11.70
2023-03-20T14:15:00.782Z,11.60
2023-03-20T14:17:28.869Z,11.50
2023-03-20T14:19:56.240Z,11.50
2023-03-20T14:22:34.618Z,11.40
2023-03-20T14:25:08.428Z,11.30
2023-03-20T14:27:52.587Z,11.30
2023-03-20T14:30:41.364Z,11.20
2023-03-20T14:33:30.536Z,11.20
2023-03-20T14:36:18.848Z,11.20
2023-03-20T14:39:26.229Z,11.20
2023-03-20T14:42:35.479Z,11.20
2023-03-20T14:45:16.539Z,11.30
2023-03-20T14:47:53.358Z,11.40
2023-03-20T14:50:31.865Z,11.50
2023-03-20T14:53:25.623Z,11.70
2023-03-20T14:55:55.342Z,11.70
2023-03-20T14:58:43.411Z,11.80
2023-03-20T15:01:39.015Z,11.90
2023-03-20T15:04:25.756Z,11.80
2023-03-20T15:07:04.510Z,11.80
2023-03-20T15:09:35.201Z,11.70
2023-03-20T15:12:04.453Z,11.70
2023-03-20T15:14:42.335Z,11.70
2023-03-20T15:17:42.562Z,11.70
2023-03-20T15:20:26.534Z,11.70
2023-03-20T15:23:01.384Z,11.70
2023-03-20T15:25:43.862Z,11.70
2023-03-20T15:28:23.900Z,11.60
2023-03-20T15:30:53.567Z,11.60
2023-03-20T15:33:26.524Z,11.60
2023-03-20T15:35:53.657Z,11.60
2023-03-20T15:38:21.008Z,11.60
2023-03-20T15:40:51.986Z,11.60
2023-03-20T15:43:22.240Z,11.50
2023-03-20T15:45:50.744Z,11.40
2023-03-20T15:48:20.467Z,11.40
2023-03-20T15:50:52.749Z,11.40
2023-03-20T15:53:39.942Z,11.30
2023-03-20T15:56:18.261Z,11.30
2023-03-20T15:58:49.482Z,11.20
2023-03-20T16:01:20.973Z,11.20
2023-03-20T16:03:48.869Z,11.10
2023-03-20T16:06:21.860Z,11.10
2023-03-20T16:09:00.790Z,11.10
2023-03-20T16:11:41.071Z,11.20
2023-03-20T16:14:21.823Z,11.20
2023-03-20T16:16:51.346Z,11.20
2023-03-20T16:19:18.804Z,11.20
2023-03-20T16:21:53.552Z,11.20
2023-03-20T16:24:29.486Z,11.20
2023-03-20T16:26:57.930Z,11.10
2023-03-20T16:29:26.958Z,11.10
2023-03-20T16:32:01.851Z,11.10
2023-03-20T16:34:37.765Z,11.10
2023-03-20T16:37:22.339Z,11.10
2023-03-20T16:40:01.168Z,11.10
2023-03-20T16:42:29.809Z,11.10
2023-03-20T16:44:59.795Z,11.10
2023-03-20T16:47:39.320Z,11.00
2023-03-20T16:50:23.342Z,11.00
2023-03-20T16:52:55.932Z,11.00
2023-03-20T16:55:32.043Z,11.00
2023-03-20T16:58:03.372Z,11.00
2023-03-20T17:00:33.190Z,10.90
2023-03-20T17:03:17.655Z,10.90
2023-03-20T17:06:06.931Z,10.80
2023-03-20T17:08:41.579Z,10.80
2023-03-20T17:11:27.240Z,10.80
2023-03-20T17:13:54.186Z,10.70
2023-03-20T17:16:22.234Z,10.70
2023-03-20T17:19:04.248Z,10.60
2023-03-20T17:21:31.680Z,10.60
2023-03-20T17:26:37.744Z,10.50
2023-03-20T17:29:05.700Z,10.40
2023-03-20T17:31:32.741Z,10.40
2023-03-20T17:33:59.703Z,10.30
2023-03-20T17:36:30.219Z,10.30
2023-03-20T17:38:58.295Z,10.30
2023-03-20T17:41:27.170Z,10.20
2023-03-20T17:43:56.517Z,10.10
2023-03-20T17:49:16.891Z,10.10
2023-03-20T17:51:44.030Z,10.00
2023-03-20T17:54:11.733Z,9.90
2023-03-20T17:56:42.100Z,9.80
2023-03-20T17:59:15.132Z,9.80
2023-03-20T18:01:43.223Z,9.70
2023-03-20T18:04:10.950Z,9.60
2023-03-20T18:06:37.977Z,9.50
2023-03-20T18:09:06.565Z,9.50
2023-03-20T18:11:34.024Z,9.60
2023-03-20T18:14:02.347Z,9.60
2023-03-20T18:16:29.855Z,9.70
2023-03-20T18:18:57.048Z,9.80
2023-03-20T18:21:25.157Z,9.80
2023-03-20T18:23:52.181Z,9.80
2023-03-20T18:26:25.692Z,9.80
2023-03-20T18:28:54.768Z,9.80
2023-03-20T18:31:22.416Z,9.80
2023-03-20T18:33:51.285Z,9.80
2023-03-20T18:36:21.024Z,9.70
2023-03-20T18:38:48.764Z,9.80
2023-03-20T18:41:16.408Z,9.80
2023-03-20T18:43:44.166Z,9.70
2023-03-20T18:46:14.658Z,9.70
2023-03-20T18:48:42.759Z,9.70
2023-03-20T18:51:10.743Z,9.70
2023-03-20T18:53:38.922Z,9.70
2023-03-20T18:56:11.196Z,9.60
2023-03-20T18:58:38.811Z,9.60
2023-03-20T19:01:06.596Z,9.60
2023-03-20T19:03:39.409Z,9.60
2023-03-20T19:06:11.257Z,9.60
2023-03-20T19:08:38.912Z,9.50
2023-03-20T19:11:06.390Z,9.50
2023-03-20T19:13:33.914Z,9.50
2023-03-20T19:16:01.438Z,9.50
2023-03-20T19:18:28.627Z,9.50
2023-03-20T19:20:57.705Z,9.50
2023-03-20T19:23:28.710Z,9.50
2023-03-20T19:25:56.801Z,9.50
2023-03-20T19:28:39.198Z,9.50
2023-03-20T19:31:09.744Z,9.50
2023-03-20T19:33:38.764Z,9.50
2023-03-20T19:36:07.295Z,9.50
2023-03-20T19:38:35.446Z,9.40
2023-03-20T19:41:03.877Z,9.40
2023-03-20T19:43:33.517Z,9.40
2023-03-20T19:46:02.959Z,9.40
2023-03-20T19:48:46.065Z,9.40
2023-03-20T19:51:26.889Z,9.50
2023-03-20T19:53:54.587Z,9.40
2023-03-20T19:56:23.213Z,9.40
2023-03-20T19:58:50.468Z,9.30
2023-03-20T20:01:21.848Z,9.30
2023-03-20T20:03:50.875Z,9.30
2023-03-20T20:06:20.140Z,9.20
2023-03-20T20:08:49.670Z,9.30
2023-03-20T20:11:22.186Z,9.30
2023-03-20T20:14:09.385Z,9.30
2023-03-20T20:16:49.816Z,9.30
2023-03-20T20:23:44.393Z,9.30
2023-03-20T20:26:13.850Z,9.30
2023-03-20T20:28:40.926Z,9.30
2023-03-20T20:31:07.849Z,9.30
2023-03-20T20:33:36.818Z,9.30
2023-03-20T20:36:52.723Z,9.30
2023-03-20T20:38:59.034Z,9.20
2023-03-20T20:41:29.241Z,9.30
2023-03-20T20:44:15.285Z,9.30
2023-03-20T20:46:42.913Z,9.20
2023-03-20T20:49:19.027Z,9.20
2023-03-20T20:51:47.801Z,9.20
2023-03-20T20:54:26.663Z,9.20
2023-03-20T20:56:53.947Z,9.10
2023-03-20T20:59:21.128Z,9.10
2023-03-20T21:01:49.130Z,9.10
2023-03-20T21:04:16.262Z,9.10
2023-03-20T21:07:07.415Z,9.10
2023-03-20T21:09:30.596Z,9.10
2023-03-20T21:11:57.788Z,9.10
2023-03-20T21:14:25.126Z,9.00
2023-03-20T21:16:52.979Z,9.00
2023-03-20T21:19:20.233Z,9.00
2023-03-20T21:21:47.153Z,8.90
2023-03-20T21:24:31.702Z,8.90
2023-03-20T21:27:01.235Z,8.90
2023-03-20T21:29:30.544Z,8.80
2023-03-20T21:32:04.980Z,8.80
2023-03-20T21:34:41.196Z,8.70
2023-03-20T21:38:18.550Z,8.70
2023-03-20T21:54:09.705Z,8.50
2023-03-20T21:56:57.379Z,8.40
2023-03-20T21:59:45.182Z,8.40
2023-03-20T22:02:10.526Z,8.30
2023-03-20T22:05:24.761Z,8.30
2023-03-20T22:08:22.815Z,8.40
2023-03-20T22:11:01.225Z,8.40
2023-03-20T22:14:06.741Z,8.50
2023-03-20T22:19:29.310Z,8.50
2023-03-20T22:25:02.917Z,8.50
2023-03-20T22:27:49.170Z,8.50
2023-03-20T22:33:22.713Z,8.50
2023-03-20T22:46:45.221Z,8.60
2023-03-20T22:49:13.929Z,8.60
2023-03-20T22:51:52.258Z,8.60
2023-03-20T22:54:27.777Z,8.60
2023-03-20T22:56:56.726Z,8.60
2023-03-20T22:59:23.855Z,8.70
2023-03-20T23:01:50.829Z,8.70
2023-03-20T23:04:21.061Z,8.70
2023-03-20T23:06:48.311Z,8.70
2023-03-20T23:09:16.025Z,8.70
2023-03-20T23:11:43.956Z,8.70
2023-03-20T23:14:21.555Z,8.70
2023-03-20T23:16:50.595Z,8.60
2023-03-20T23:19:17.613Z,8.60
2023-03-20T23:21:44.523Z,8.60
2023-03-20T23:24:11.684Z,8.60
2023-03-20T23:26:38.523Z,8.60
2023-03-20T23:29:05.726Z,8.60
2023-03-20T23:31:32.602Z,8.60
2023-03-20T23:33:59.541Z,8.60
2023-03-20T23:36:38.497Z,8.60
2023-03-20T23:39:08.940Z,8.60
2023-03-20T23:42:06.112Z,8.60
2023-03-20T23:44:23.711Z,8.60
2023-03-20T23:46:50.554Z,8.60
2023-03-20T23:49:17.606Z,8.60
2023-03-20T23:51:44.615Z,8.60
2023-03-20T23:54:12.041Z,8.60
2023-03-20T23:56:39.813Z,8.50
2023-03-20T23:59:20.183Z,8.50
